^^
Saratoga-Weather Station Historical Data
Daily Summary for July 19, 2020 Units:  English    Metric   Both
Daily Weekly Monthly Yearly Custom
  High: Low: Average:
Temperature: 45.9 °F 40.3 °F 43 °F
Dew Point: 41.2 °F 32.7 °F 37.4 °F
Humidity: 92% 61% 81%
Wind Speed: 17mph 0mph 4.9mph
Wind Gust: 32mph - -
Wind- - WSW
Pressure: 30.3 in 30 in -
Precipitation: 0.27 in    
Historical Graphs
 
 
Tabular Data for July 19, 2020
Time Temperature Dew Point Pressure Wind Wind Speed Wind Gust Humidity Rainfall Rate (Hourly) solar
00:04 43.2 °F 39.6 °F 30.2 in North 2 mph 3 mph 87% 0 in 0 W/m2
00:09 43.3 °F 39.7 °F 30.1 in West 0.9 mph 6 mph 87% 0 in 0 W/m2
00:14 43.3 °F 39.7 °F 30.1 in NE 0.9 mph 3 mph 87% 0 in 0 W/m2
00:19 43.5 °F 39.9 °F 30.1 in West 2 mph 6 mph 87% 0 in 0 W/m2
00:24 43.5 °F 39.9 °F 30.1 in North 2 mph 9 mph 87% 0 in 0 W/m2
00:29 43.7 °F 40.1 °F 30.1 in NNW 4 mph 7 mph 87% 0 in 0 W/m2
00:34 43.9 °F 39.9 °F 30.1 in Calm   9 mph 86% 0 in 0 W/m2
00:39 44.1 °F 40.1 °F 30.1 in NNW 2 mph 4 mph 86% 0 in 0 W/m2
00:44 44.1 °F 40.1 °F 30.1 in SSW 2.9 mph 10 mph 86% 0 in 0 W/m2
00:49 44.1 °F 40.1 °F 30.1 in WNW 2 mph 5 mph 86% 0 in 0 W/m2
00:54 44.2 °F 40.3 °F 30.1 in NW 6 mph 10 mph 86% 0 in 0 W/m2
01:00 44.2 °F 40.3 °F 30.1 in North 2 mph 3 mph 86% 0 in 0 W/m2
01:05 44.2 °F 40.3 °F 30.1 in NNE 0.9 mph 5 mph 86% 0 in 0 W/m2
01:10 44.4 °F 40.5 °F 30.1 in WNW 4 mph 8 mph 86% 0 in 0 W/m2
01:15 44.4 °F 40.5 °F 30.1 in WNW 8.1 mph 9 mph 86% 0 in 0 W/m2
01:20 44.4 °F 40.5 °F 30.1 in WNW 4.9 mph 8 mph 86% 0 in 0 W/m2
01:25 44.4 °F 40.5 °F 30.1 in West 2 mph 5 mph 86% 0.01 in 0 W/m2
01:30 44.2 °F 40.3 °F 30.1 in WSW 4 mph 11 mph 86% 0.01 in 0 W/m2
01:35 44.2 °F 40.3 °F 30.1 in WSW 4.9 mph 7 mph 86% 0.01 in 0 W/m2
01:40 44.2 °F 40.6 °F 30.1 in NW 2 mph 12 mph 87% 0.01 in 0 W/m2
01:45 44.1 °F 40.5 °F 30.1 in SW 0.9 mph 7 mph 87% 0.02 in 0 W/m2
01:50 44.1 °F 40.8 °F 30.1 in West 2 mph 12 mph 88% 0.02 in 0 W/m2
01:55 43.9 °F 40.6 °F 30.1 in NW 4 mph 5 mph 88% 0.02 in 0 W/m2
02:00 43.9 °F 40.8 °F 30.1 in NNW 4 mph 10 mph 89% 0.02 in 0 W/m2
02:05 43.9 °F 40.8 °F 30.1 in NNW 4 mph 8 mph 89% 0.02 in 0 W/m2
02:10 43.9 °F 40.8 °F 30.1 in West 2 mph 16 mph 89% 0.04 in 0 W/m2
02:15 43.7 °F 41 °F 30.1 in NW 2 mph 4 mph 90% 0.04 in 0 W/m2
02:20 43.7 °F 41 °F 30.1 in ENE 2.9 mph 15 mph 90% 0.04 in 0 W/m2
02:25 43.7 °F 41 °F 30.1 in WNW 4 mph 6 mph 90% 0.03 in 0 W/m2
02:30 43.7 °F 41 °F 30.1 in WNW 2 mph 8 mph 90% 0.04 in 0 W/m2
02:35 43.7 °F 41 °F 30.1 in NNE 6 mph 7 mph 90% 0.04 in 0 W/m2
02:40 43.7 °F 41 °F 30.1 in WNW 4 mph 7 mph 90% 0.05 in 0 W/m2
02:45 43.7 °F 41 °F 30.1 in NNW 4 mph 13 mph 90% 0.04 in 0 W/m2
02:50 43.7 °F 41 °F 30.1 in North 0.9 mph 4 mph 90% 0.05 in 0 W/m2
02:55 43.7 °F 41 °F 30.1 in SSE 2.9 mph 12 mph 90% 0.04 in 0 W/m2
03:00 43.7 °F 41.2 °F 30.1 in SW 2.9 mph 6 mph 91% 0.05 in 0 W/m2
03:05 43.5 °F 41 °F 30.1 in SSW 4.9 mph 10 mph 91% 0.06 in 0 W/m2
03:10 43.5 °F 41 °F 30.1 in WNW 4 mph 7 mph 91% 0.05 in 0 W/m2
03:15 43.5 °F 41 °F 30.1 in West 4 mph 14 mph 91% 0.06 in 0 W/m2
03:20 43.5 °F 41 °F 30.1 in NNW 4.9 mph 5 mph 91% 0.07 in 0 W/m2
03:25 43.3 °F 40.8 °F 30.1 in West 6.9 mph 8 mph 91% 0.09 in 0 W/m2
03:30 43.3 °F 40.8 °F 30.1 in SSW 2.9 mph 7 mph 91% 0.08 in 0 W/m2
03:35 43.3 °F 40.8 °F 30 in West 6.9 mph 13 mph 91% 0.09 in 0 W/m2
03:40 43.3 °F 40.8 °F 30 in West 4 mph 8 mph 91% 0.09 in 0 W/m2
03:45 43.3 °F 40.8 °F 30 in NW 12.1 mph 12 mph 91% 0.1 in 0 W/m2
03:50 43.2 °F 40.6 °F 30 in West 2 mph 12 mph 91% 0.1 in 0 W/m2
03:55 43.2 °F 40.6 °F 30 in WSW 4 mph 6 mph 91% 0.1 in 0 W/m2
04:00 43.2 °F 40.6 °F 30 in West 2 mph 15 mph 91% 0.1 in 0 W/m2
04:05 43.2 °F 40.6 °F 30 in SSW 6 mph 8 mph 91% 0.09 in 0 W/m2
04:10 43.2 °F 40.6 °F 30 in NW 4.9 mph 32 mph 91% 0.09 in 0 W/m2
04:15 43.2 °F 40.6 °F 30 in WNW 4 mph 10 mph 91% 0.08 in 0 W/m2
04:20 43.2 °F 40.6 °F 30 in WNW 2.9 mph 5 mph 91% 0.06 in 0 W/m2
04:26 43 °F 40.5 °F 30 in WNW 2 mph 12 mph 91% 0.05 in 0 W/m2
04:31 43 °F 40.5 °F 30 in WNW 4.9 mph 10 mph 91% 0.05 in 0 W/m2
04:36 43 °F 40.5 °F 30 in WNW 6.9 mph 20 mph 91% 0.06 in 0 W/m2
04:41 42.8 °F 40.6 °F 30 in West 2 mph 13 mph 92% 0.06 in 0 W/m2
04:46 42.6 °F 40.5 °F 30 in West 4 mph 15 mph 92% 0.05 in 0 W/m2
04:51 42.6 °F 40.5 °F 30 in WNW 2 mph 12 mph 92% 0.04 in 0 W/m2
04:56 42.8 °F 40.6 °F 30 in WNW 8.1 mph 12 mph 92% 0.03 in 0 W/m2
05:01 42.8 °F 40.3 °F 30 in NNW 2 mph 8 mph 91% 0.03 in 0 W/m2
05:06 43 °F 40.5 °F 30 in SW 2 mph 6 mph 91% 0.03 in 0 W/m2
05:11 43 °F 40.5 °F 30 in West 6 mph 7 mph 91% 0.03 in 0 W/m2
05:16 42.8 °F 40.3 °F 30 in West 8.9 mph 10 mph 91% 0.03 in 0 W/m2
05:21 42.8 °F 40.3 °F 30.1 in WNW 4.9 mph 13 mph 91% 0.03 in 0 W/m2
05:26 42.8 °F 40.3 °F 30.1 in WNW 4.9 mph 9 mph 91% 0.03 in 0 W/m2
05:31 42.8 °F 40.3 °F 30.1 in West 2.9 mph 4 mph 91% 0.02 in 0 W/m2
05:36 42.6 °F 40.1 °F 30.1 in NW 2.9 mph 9 mph 91% 0.01 in 0 W/m2
05:41 42.6 °F 40.1 °F 30.1 in WSW 2.9 mph 8 mph 91% 0 in 0 W/m2
05:46 42.6 °F 40.1 °F 30.1 in WNW 4 mph 9 mph 91% 0 in 0 W/m2
05:51 42.6 °F 40.1 °F 30.1 in NW 4.9 mph 12 mph 91% 0 in 0 W/m2
05:56 42.6 °F 40.1 °F 30.1 in West 8.9 mph 13 mph 91% 0 in 0 W/m2
06:01 42.4 °F 39.9 °F 30.1 in West 4 mph 8 mph 91% 0 in 0 W/m2
06:06 42.4 °F 39.9 °F 30.1 in West 2.9 mph 10 mph 91% 0 in 0 W/m2
06:11 42.3 °F 39.6 °F 30.1 in WSW 8.9 mph 12 mph 90% 0.01 in 0 W/m2
06:16 42.3 °F 39.6 °F 30.1 in NW 6 mph 9 mph 90% 0.01 in 0 W/m2
06:21 42.1 °F 39.4 °F 30.1 in WSW 6.9 mph 9 mph 90% 0.01 in 0 W/m2
06:27 41.9 °F 39.4 °F 30.1 in West 8.1 mph 15 mph 91% 0.01 in 0 W/m2
06:32 41.7 °F 39 °F 30.1 in WSW 12.1 mph 12 mph 90% 0.02 in 0 W/m2
06:37 41.5 °F 38.8 °F 30.1 in WNW 8.9 mph 11 mph 90% 0.02 in 0 W/m2
06:42 41.4 °F 38.7 °F 30.1 in NW 6.9 mph 10 mph 90% 0.02 in 0 W/m2
06:47 41.4 °F 38.7 °F 30.1 in WNW 8.9 mph 10 mph 90% 0.02 in 0 W/m2
06:52 41.4 °F 38.7 °F 30.1 in NW 4.9 mph 11 mph 90% 0.02 in 0 W/m2
06:57 41.4 °F 39 °F 30.1 in West 4 mph 11 mph 91% 0.02 in 0 W/m2
07:02 41.4 °F 39 °F 30.1 in West 10.1 mph 12 mph 91% 0.03 in 0 W/m2
07:07 41.4 °F 39 °F 30.1 in West 6 mph 7 mph 91% 0.03 in 0 W/m2
07:12 41.2 °F 38.8 °F 30.1 in WNW 8.9 mph 14 mph 91% 0.02 in 0 W/m2
07:17 41.2 °F 38.8 °F 30.1 in West 2.9 mph 12 mph 91% 0.02 in 0 W/m2
07:22 41.2 °F 38.8 °F 30.1 in West 14 mph 14 mph 91% 0.02 in 0 W/m2
07:27 41.2 °F 38.5 °F 30.1 in WSW 6.9 mph 10 mph 90% 0.02 in 0 W/m2
07:32 41.2 °F 38.5 °F 30.1 in WNW 10.1 mph 13 mph 90% 0.02 in 0 W/m2
07:37 41.2 °F 38.5 °F 30.1 in NW 8.1 mph 11 mph 90% 0.02 in 0 W/m2
07:42 41 °F 37.9 °F 30.1 in WNW 8.1 mph 12 mph 89% 0.02 in 5 W/m2
07:47 40.8 °F 37.8 °F 30.1 in West 6.9 mph 9 mph 89% 0.02 in 5 W/m2
07:53 40.8 °F 37.8 °F 30.1 in WSW 10.1 mph 17 mph 89% 0.02 in 9 W/m2
07:58 40.8 °F 37.8 °F 30.1 in NW 6.9 mph 11 mph 89% 0.02 in 12 W/m2
08:03 40.8 °F 37.8 °F 30.1 in West 6.9 mph 18 mph 89% 0 in 60 W/m2
08:08 40.8 °F 38.1 °F 30.1 in WNW 8.9 mph 10 mph 90% 0 in 21 W/m2
08:13 40.8 °F 38.1 °F 30.1 in SW 10.1 mph 18 mph 90% 0 in 12 W/m2
08:18 40.8 °F 38.1 °F 30.1 in West 4 mph 6 mph 90% 0 in 23 W/m2
08:23 40.8 °F 38.1 °F 30.1 in WNW 4.9 mph 13 mph 90% 0 in 18 W/m2
08:28 40.8 °F 38.1 °F 30.1 in NW 4.9 mph 10 mph 90% 0 in 39 W/m2
08:33 40.6 °F 37.6 °F 30.1 in West 8.1 mph 20 mph 89% 0 in 30 W/m2
08:38 40.5 °F 37.8 °F 30.1 in WNW 8.9 mph 16 mph 90% 0 in 26 W/m2
08:43 40.3 °F 37.6 °F 30.1 in WSW 12.1 mph 17 mph 90% 0 in 47 W/m2
08:48 40.3 °F 37.6 °F 30.1 in WSW 6.9 mph 14 mph 90% 0 in 98 W/m2
08:53 40.3 °F 37.6 °F 30.1 in WSW 6.9 mph 15 mph 90% 0 in 86 W/m2
08:58 40.3 °F 37.6 °F 30.1 in WSW 8.9 mph 12 mph 90% 0 in 63 W/m2
09:03 40.5 °F 37.8 °F 30.1 in WSW 6.9 mph 12 mph 90% 0 in 56 W/m2
09:08 40.5 °F 37.8 °F 30.1 in WSW 6.9 mph 8 mph 90% 0 in 42 W/m2
09:13 40.5 °F 37.8 °F 30.1 in West 6.9 mph 10 mph 90% 0 in 44 W/m2
09:18 40.6 °F 37.9 °F 30.2 in West 6.9 mph 8 mph 90% 0 in 53 W/m2
09:23 40.8 °F 38.1 °F 30.2 in West 6.9 mph 15 mph 90% 0 in 76 W/m2
09:28 41.2 °F 38.1 °F 30.2 in West 11 mph 14 mph 89% 0 in 197 W/m2
09:33 41.4 °F 38.3 °F 30.2 in West 6.9 mph 11 mph 89% 0 in 267 W/m2
09:38 41.5 °F 38.3 °F 30.2 in WSW 15 mph 15 mph 88% 0 in 127 W/m2
09:43 41.7 °F 38.1 °F 30.2 in West 12.1 mph 13 mph 87% 0 in 304 W/m2
09:48 41.7 °F 37.8 °F 30.2 in WSW 4 mph 11 mph 86% 0 in 315 W/m2
09:53 42.1 °F 38.1 °F 30.2 in WSW 8.1 mph 11 mph 86% 0.01 in 318 W/m2
09:58 42.3 °F 38.3 °F 30.2 in WNW 8.9 mph 11 mph 86% 0.01 in 237 W/m2
10:03 42.4 °F 38.3 °F 30.2 in West 10.1 mph 10 mph 85% 0.01 in 276 W/m2
10:08 42.4 °F 38.3 °F 30.2 in West 8.1 mph 9 mph 85% 0.01 in 139 W/m2
10:13 42.4 °F 37.9 °F 30.2 in WSW 6.9 mph 17 mph 84% 0.01 in 251 W/m2
10:18 42.4 °F 37.9 °F 30.2 in West 8.1 mph 13 mph 84% 0.01 in 345 W/m2
10:23 42.6 °F 38.1 °F 30.2 in WNW 8.1 mph 17 mph 84% 0.01 in 366 W/m2
10:28 42.8 °F 37.9 °F 30.2 in West 10.1 mph 13 mph 83% 0.01 in 336 W/m2
10:33 42.8 °F 37.8 °F 30.2 in West 8.9 mph 9 mph 82% 0.01 in 322 W/m2
10:38 42.8 °F 37 °F 30.2 in NW 8.9 mph 18 mph 80% 0.01 in 257 W/m2
10:43 42.8 °F 37 °F 30.2 in West 13 mph 14 mph 80% 0.01 in 163 W/m2
10:48 42.8 °F 37 °F 30.2 in West 8.1 mph 14 mph 80% 0.01 in 186 W/m2
10:53 43.2 °F 37.8 °F 30.2 in NW 6.9 mph 16 mph 81% 0 in 214 W/m2
10:58 43.3 °F 36.9 °F 30.2 in WSW 11 mph 19 mph 78% 0 in 306 W/m2
11:03 43.3 °F 36.7 °F 30.2 in NW 6 mph 12 mph 77% 0 in 111 W/m2
11:08 43.3 °F 37.2 °F 30.2 in West 12.1 mph 12 mph 79% 0 in 380 W/m2
11:13 43.2 °F 37 °F 30.2 in WSW 6.9 mph 9 mph 79% 0 in 294 W/m2
11:18 43 °F 36.9 °F 30.2 in West 4 mph 13 mph 79% 0 in 338 W/m2
11:23 43.2 °F 37 °F 30.2 in West 8.1 mph 16 mph 79% 0 in 269 W/m2
11:28 43 °F 37.2 °F 30.2 in NW 12.1 mph 12 mph 80% 0 in 206 W/m2
11:33 43.2 °F 37.8 °F 30.2 in West 6 mph 8 mph 81% 0 in 160 W/m2
11:38 43.3 °F 37.6 °F 30.2 in West 6.9 mph 9 mph 80% 0 in 179 W/m2
11:43 43.7 °F 37.2 °F 30.2 in WNW 6.9 mph 12 mph 78% 0 in 236 W/m2
11:48 43.7 °F 37 °F 30.2 in SW 13 mph 13 mph 77% 0 in 67 W/m2
11:53 43.3 °F 36.7 °F 30.2 in WNW 6.9 mph 8 mph 77% 0 in 95 W/m2
11:58 43.2 °F 36.1 °F 30.2 in WNW 6.9 mph 11 mph 76% 0 in 128 W/m2
12:03 43.3 °F 35.6 °F 30.2 in WSW 8.9 mph 13 mph 74% 0 in 113 W/m2
12:08 43.3 °F 35.6 °F 30.2 in West 8.9 mph 12 mph 74% 0 in 148 W/m2
12:13 43 °F 34.5 °F 30.2 in WSW 6.9 mph 12 mph 72% 0 in 141 W/m2
12:18 42.6 °F 34.2 °F 30.2 in WNW 4 mph 14 mph 72% 0 in 62 W/m2
12:23 43 °F 35.2 °F 30.2 in West 17 mph 17 mph 74% 0 in 427 W/m2
12:28 43.2 °F 34.7 °F 30.2 in West 12.1 mph 17 mph 72% 0 in 308 W/m2
12:33 43.3 °F 34.2 °F 30.2 in West 6 mph 13 mph 70% 0 in 253 W/m2
12:38 43.9 °F 34.7 °F 30.2 in WNW 12.1 mph 13 mph 70% 0 in 156 W/m2
12:43 43.9 °F 35.1 °F 30.2 in SW 8.9 mph 10 mph 71% 0 in 253 W/m2
12:48 44.1 °F 35.2 °F 30.2 in West 6.9 mph 13 mph 71% 0 in 190 W/m2
12:53 44.1 °F 35.6 °F 30.2 in West 12.1 mph 16 mph 72% 0 in 232 W/m2
12:59 44.1 °F 35.6 °F 30.2 in West 8.1 mph 12 mph 72% 0 in 301 W/m2
13:04 44.1 °F 34.9 °F 30.2 in NNW 4 mph 13 mph 70% 0 in 174 W/m2
13:09 44.1 °F 35.2 °F 30.2 in WSW 2.9 mph 11 mph 71% 0 in 107 W/m2
13:14 43.9 °F 35.1 °F 30.2 in West 6.9 mph 11 mph 71% 0 in 88 W/m2
13:19 43.9 °F 35.4 °F 30.2 in NW 6.9 mph 8 mph 72% 0 in 200 W/m2
13:24 43.9 °F 35.1 °F 30.2 in NNW 4.9 mph 14 mph 71% 0 in 125 W/m2
13:29 44.2 °F 35.1 °F 30.2 in West 4 mph 12 mph 70% 0 in 134 W/m2
13:34 44.6 °F 34.3 °F 30.2 in WNW 6.9 mph 12 mph 67% 0 in 220 W/m2
13:39 45 °F 34.7 °F 30.2 in WNW 6.9 mph 10 mph 67% 0 in 165 W/m2
13:44 45.1 °F 34.5 °F 30.2 in WSW 4 mph 13 mph 66% 0 in 206 W/m2
13:49 45.1 °F 34.9 °F 30.2 in WSW 8.1 mph 8 mph 67% 0 in 250 W/m2
13:54 45.3 °F 35.4 °F 30.2 in West 8.9 mph 9 mph 68% 0 in 206 W/m2
13:59 45.7 °F 35.8 °F 30.2 in WSW 6.9 mph 9 mph 68% 0 in 213 W/m2
14:04 45.3 °F 34.3 °F 30.2 in West 6 mph 18 mph 65% 0 in 162 W/m2
14:09 45.3 °F 34.7 °F 30.2 in West 6.9 mph 12 mph 66% 0 in 281 W/m2
14:14 45.3 °F 34.7 °F 30.2 in NW 6.9 mph 12 mph 66% 0 in 213 W/m2
14:19 45.3 °F 34.7 °F 30.2 in NW 4 mph 5 mph 66% 0 in 165 W/m2
14:24 45.5 °F 34.9 °F 30.2 in West 6 mph 11 mph 66% 0 in 148 W/m2
14:29 45.3 °F 34.7 °F 30.2 in West 8.9 mph 10 mph 66% 0 in 202 W/m2
14:34 45.3 °F 35.1 °F 30.2 in WNW 6.9 mph 16 mph 67% 0 in 234 W/m2
14:39 45.9 °F 35.6 °F 30.2 in West 8.1 mph 12 mph 67% 0 in 188 W/m2
14:44 45.9 °F 34.3 °F 30.2 in West 11 mph 16 mph 64% 0 in 137 W/m2
14:49 45.3 °F 33.8 °F 30.2 in NW 11 mph 12 mph 64% 0 in 139 W/m2
14:54 45.1 °F 34.2 °F 30.2 in WSW 8.1 mph 12 mph 65% 0 in 127 W/m2
14:59 45.1 °F 34.9 °F 30.2 in West 4 mph 9 mph 67% 0 in 153 W/m2
15:04 45.3 °F 34.7 °F 30.2 in West 6.9 mph 9 mph 66% 0 in 171 W/m2
15:09 45.5 °F 34.9 °F 30.2 in WSW 6 mph 11 mph 66% 0 in 188 W/m2
15:14 45.7 °F 35.1 °F 30.2 in WSW 12.1 mph 16 mph 66% 0 in 179 W/m2
15:19 45.7 °F 34.2 °F 30.2 in NNW 4 mph 8 mph 64% 0 in 158 W/m2
15:24 45.7 °F 34.2 °F 30.2 in WNW 6 mph 13 mph 64% 0 in 162 W/m2
15:29 45.7 °F 34.2 °F 30.2 in WNW 8.1 mph 12 mph 64% 0 in 151 W/m2
15:34 45.7 °F 34.5 °F 30.2 in West 2.9 mph 6 mph 65% 0 in 156 W/m2
15:39 45.7 °F 34.2 °F 30.2 in NW 4.9 mph 10 mph 64% 0 in 151 W/m2
15:44 45.7 °F 33.4 °F 30.2 in West 8.9 mph 10 mph 62% 0 in 137 W/m2
15:49 45.7 °F 33.1 °F 30.2 in West 8.1 mph 12 mph 61% 0 in 130 W/m2
15:54 45.5 °F 32.9 °F 30.2 in West 6 mph 9 mph 61% 0 in 120 W/m2
15:59 45.3 °F 32.7 °F 30.2 in West 8.1 mph 11 mph 61% 0 in 121 W/m2
16:04 45.3 °F 33.1 °F 30.2 in WNW 4.9 mph 14 mph 62% 0 in 102 W/m2
16:09 45.1 °F 33.3 °F 30.2 in SSW 8.9 mph 14 mph 63% 0 in 95 W/m2
16:14 45.1 °F 33.6 °F 30.2 in WNW 2.9 mph 8 mph 64% 0 in 88 W/m2
16:19 45.1 °F 34.2 °F 30.2 in NW 14 mph 14 mph 65% 0 in 95 W/m2
16:24 45.1 °F 34.2 °F 30.2 in West 8.1 mph 8 mph 65% 0 in 97 W/m2
16:29 45 °F 34 °F 30.2 in WNW 4 mph 14 mph 65% 0 in 79 W/m2
16:34 45 °F 34.3 °F 30.2 in WSW 6.9 mph 8 mph 66% 0 in 67 W/m2
16:39 45 °F 34.3 °F 30.2 in WNW 8.1 mph 9 mph 66% 0 in 62 W/m2
16:44 45 °F 34.7 °F 30.2 in WSW 6.9 mph 7 mph 67% 0 in 58 W/m2
16:49 45 °F 34.3 °F 30.2 in West 13 mph 13 mph 66% 0 in 60 W/m2
16:54 44.8 °F 34.2 °F 30.2 in West 13 mph 13 mph 66% 0 in 60 W/m2
16:59 44.8 °F 34.2 °F 30.2 in WNW 6.9 mph 13 mph 66% 0 in 54 W/m2
17:04 44.8 °F 34.2 °F 30.2 in WNW 2.9 mph 5 mph 66% 0 in 53 W/m2
17:09 44.8 °F 34.5 °F 30.2 in NW 2 mph 4 mph 67% 0 in 44 W/m2
17:14 44.6 °F 34.3 °F 30.2 in WNW 2 mph 9 mph 67% 0 in 42 W/m2
17:19 44.6 °F 34.3 °F 30.2 in West 2.9 mph 7 mph 67% 0 in 44 W/m2
17:24 44.4 °F 34.2 °F 30.2 in West 2.9 mph 9 mph 67% 0 in 46 W/m2
17:30 44.4 °F 34.2 °F 30.2 in WSW 2.9 mph 6 mph 67% 0 in 37 W/m2
17:35 44.2 °F 34.3 °F 30.2 in WNW 2.9 mph 7 mph 68% 0 in 23 W/m2
17:40 44.2 °F 34.3 °F 30.2 in West 2.9 mph 3 mph 68% 0 in 14 W/m2
17:45 44.1 °F 34.5 °F 30.2 in NW 0.9 mph 4 mph 69% 0 in 12 W/m2
17:50 43.9 °F 34.3 °F 30.2 in West 10.1 mph 10 mph 69% 0 in 11 W/m2
17:55 43.7 °F 34.2 °F 30.2 in West 6.9 mph 9 mph 69% 0 in 7 W/m2
18:00 43.5 °F 34 °F 30.2 in West 2.9 mph 7 mph 69% 0 in 0 W/m2
18:05 43.3 °F 33.8 °F 30.2 in WNW 0.9 mph 4 mph 69% 0 in 0 W/m2
18:10 43.3 °F 33.8 °F 30.2 in WNW 0.9 mph 2 mph 69% 0 in 0 W/m2
18:15 43.2 °F 34 °F 30.2 in WNW 2.9 mph 3 mph 70% 0 in 0 W/m2
18:20 43.2 °F 34 °F 30.2 in West 0.9 mph 3 mph 70% 0 in 0 W/m2
18:25 43 °F 34.2 °F 30.2 in Calm   2 mph 71% 0 in 0 W/m2
18:30 43 °F 34.2 °F 30.2 in NW 2 mph 2 mph 71% 0 in 0 W/m2
18:35 42.6 °F 34.2 °F 30.2 in NW 0.9 mph 1 mph 72% 0 in 0 W/m2
18:40 42.4 °F 34.3 °F 30.2 in Calm     73% 0 in 0 W/m2
18:45 42.1 °F 34.3 °F 30.2 in NW 0.9 mph 1 mph 74% 0 in 0 W/m2
18:50 41.7 °F 34.3 °F 30.2 in Calm   1 mph 75% 0 in 0 W/m2
18:55 41.4 °F 34.3 °F 30.2 in Calm   1 mph 76% 0 in 0 W/m2
19:00 41.2 °F 34.5 °F 30.2 in Calm   2 mph 77% 0 in 0 W/m2
19:05 41 °F 34.3 °F 30.2 in Calm     77% 0 in 0 W/m2
19:10 40.8 °F 34.5 °F 30.2 in Calm     78% 0 in 0 W/m2
19:15 40.8 °F 34.5 °F 30.2 in Calm   1 mph 78% 0 in 0 W/m2
19:20 40.8 °F 34.9 °F 30.2 in NNE 0.9 mph 2 mph 79% 0 in 0 W/m2
19:25 40.8 °F 34.9 °F 30.2 in NNE 2 mph 2 mph 79% 0 in 0 W/m2
19:30 40.8 °F 34.9 °F 30.2 in NE 0.9 mph 1 mph 79% 0 in 0 W/m2
19:36 41.4 °F 35.1 °F 30.2 in NE 0.9 mph 3 mph 78% 0 in 0 W/m2
19:41 41.5 °F 35.2 °F 30.2 in NW 2 mph 4 mph 78% 0 in 0 W/m2
19:46 42.1 °F 35.4 °F 30.3 in West 0.9 mph 2 mph 77% 0 in 0 W/m2
19:51 42.3 °F 35.6 °F 30.2 in NNW 0.9 mph 4 mph 77% 0 in 0 W/m2
19:56 42.3 °F 36 °F 30.2 in NNE 2 mph 2 mph 78% 0 in 0 W/m2
20:01 42.3 °F 36 °F 30.2 in Calm   2 mph 78% 0 in 0 W/m2
20:06 42.4 °F 36.1 °F 30.2 in SW 2 mph 9 mph 78% 0 in 0 W/m2
20:11 42.4 °F 36.1 °F 30.2 in Calm   1 mph 78% 0 in 0 W/m2
20:16 42.4 °F 36.3 °F 30.2 in ENE 5 mph 5 mph 79% 0 in 0 W/m2
20:21 42.4 °F 36.7 °F 30.2 in ESE 0.9 mph 2 mph 80% 0 in 0 W/m2
20:26 42.4 °F 36.7 °F 30.2 in Calm   1 mph 80% 0 in 0 W/m2
20:31 42.4 °F 36.7 °F 30.2 in SSE 0.9 mph 1 mph 80% 0 in 0 W/m2
20:36 42.4 °F 37 °F 30.2 in Calm     81% 0 in 0 W/m2
20:41 42.3 °F 36.9 °F 30.2 in East 0.9 mph 2 mph 81% 0 in 0 W/m2
20:46 42.1 °F 37 °F 30.2 in ESE 2 mph 2 mph 82% 0 in 0 W/m2
20:51 41.9 °F 36.9 °F 30.2 in Calm     82% 0 in 0 W/m2
20:56 41.7 °F 36.9 °F 30.2 in Calm   1 mph 83% 0 in 0 W/m2
21:01 41.5 °F 36.7 °F 30.2 in NE 0.9 mph 2 mph 83% 0 in 0 W/m2
21:06 41.5 °F 36.7 °F 30.2 in North 0.9 mph 2 mph 83% 0 in 0 W/m2
21:11 41.7 °F 37.2 °F 30.2 in ENE 2.9 mph 3 mph 84% 0 in 0 W/m2
21:16 41.7 °F 37.2 °F 30.2 in Calm   2 mph 84% 0 in 0 W/m2
21:21 41.7 °F 37.2 °F 30.2 in Calm   2 mph 84% 0 in 0 W/m2
21:26 41.7 °F 37.2 °F 30.2 in SW 0.9 mph 2 mph 84% 0 in 0 W/m2
21:31 42.1 °F 37.6 °F 30.2 in NNW 0.9 mph 2 mph 84% 0 in 0 W/m2
21:36 42.3 °F 37.4 °F 30.2 in Calm   2 mph 83% 0 in 0 W/m2
21:42 42.4 °F 37.6 °F 30.2 in NW 2 mph 3 mph 83% 0 in 0 W/m2
21:47 42.4 °F 37.6 °F 30.2 in WSW 2.9 mph 7 mph 83% 0 in 0 W/m2
21:52 42.4 °F 37.6 °F 30.2 in Calm   1 mph 83% 0 in 0 W/m2
21:57 42.4 °F 37.6 °F 30.2 in WNW 2 mph 3 mph 83% 0 in 0 W/m2
22:02 42.4 °F 37.9 °F 30.2 in NNE 0.9 mph 2 mph 84% 0 in 0 W/m2
22:07 42.4 °F 37.9 °F 30.2 in Calm   1 mph 84% 0 in 0 W/m2
22:12 42.4 °F 37.9 °F 30.2 in SW 0.9 mph 2 mph 84% 0 in 0 W/m2
22:17 42.6 °F 38.1 °F 30.2 in Calm   4 mph 84% 0 in 0 W/m2
22:22 42.6 °F 38.1 °F 30.2 in WNW 2.9 mph 3 mph 84% 0 in 0 W/m2
22:27 42.6 °F 38.1 °F 30.2 in North 0.9 mph 1 mph 84% 0 in 0 W/m2
22:32 42.8 °F 38.3 °F 30.2 in East 2.9 mph 4 mph 84% 0 in 0 W/m2
22:37 43 °F 38.5 °F 30.2 in NW 2.9 mph 8 mph 84% 0 in 0 W/m2
22:42 43 °F 38.1 °F 30.2 in WNW 2 mph 7 mph 83% 0 in 0 W/m2
22:47 43 °F 38.1 °F 30.2 in North 0.9 mph 8 mph 83% 0 in 0 W/m2
22:52 43 °F 38.5 °F 30.2 in WNW 2 mph 7 mph 84% 0 in 0 W/m2
22:57 43 °F 38.5 °F 30.2 in NNE 0.9 mph 8 mph 84% 0 in 0 W/m2
23:02 43 °F 38.5 °F 30.2 in WSW 0.9 mph 4 mph 84% 0 in 0 W/m2
23:07 43 °F 38.8 °F 30.2 in NE 0.9 mph 8 mph 85% 0 in 0 W/m2
23:12 42.8 °F 38.8 °F 30.2 in NW 2 mph 3 mph 86% 0 in 0 W/m2
23:18 42.6 °F 38.7 °F 30.2 in Calm   5 mph 86% 0.01 in 0 W/m2
23:23 42.4 °F 38.8 °F 30.2 in North 0.9 mph 2 mph 87% 0.01 in 0 W/m2
23:28 42.4 °F 38.8 °F 30.2 in Calm   2 mph 87% 0.01 in 0 W/m2
23:33 42.3 °F 39 °F 30.2 in West 0.9 mph 4 mph 88% 0.01 in 0 W/m2
23:38 42.3 °F 39 °F 30.2 in Calm   2 mph 88% 0.02 in 0 W/m2
23:43 42.1 °F 39 °F 30.2 in ESE 0.9 mph 4 mph 89% 0.02 in 0 W/m2
23:48 41.9 °F 38.8 °F 30.2 in NE 0.9 mph 1 mph 89% 0.02 in 0 W/m2
23:53 41.9 °F 39.2 °F 30.2 in ESE 0.9 mph 2 mph 90% 0.02 in 0 W/m2
23:58 41.7 °F 39 °F 30.2 in Calm   3 mph 90% 0.02 in 0 W/m2
Juneau County Weather
Compliments of Weather Underground - 4 mb